Time;durP1;ratioP1;P1;durP2;ratioP2;P2;SDS_P1;SDS_P2;PMS_P1;PMS_P2;Temp;Humidity;BMP_temperature;BMP_pressure;BME280_temperature;BME280_humidity;BME280_pressure;Samples;Min_cycle;Max_cycle;Signal;HPM_P1;HPM_P2
2023/03/01 00:01:31;;;;;;;0.90;0.90;;;-0.50;70.00;;;-0.94;57.16;95737.34;5054750;28;20203;-20
2023/03/01 00:03:59;;;;;;;0.90;0.90;;;-0.50;70.00;;;-0.96;57.12;95731.47;5054843;28;20655;-19
2023/03/01 00:06:27;;;;;;;0.80;0.80;;;-0.50;69.90;;;-0.96;57.12;95736.63;5037494;28;20196;-19
2023/03/01 00:08:55;;;;;;;0.80;0.80;;;-0.60;69.90;;;-1.00;57.14;95738.56;5054492;28;20198;-19
2023/03/01 00:11:26;;;;;;;0.80;0.80;;;-0.60;69.90;;;-1.02;57.16;95737.03;5054876;28;20192;-19
2023/03/01 00:13:57;;;;;;;0.90;0.90;;;-0.60;69.90;;;-1.06;57.59;95733.81;5055083;28;20184;-20
2023/03/01 00:16:33;;;;;;;0.82;0.82;;;-0.70;69.90;;;-1.10;57.52;95729.78;5037234;28;20207;-20
2023/03/01 00:19:00;;;;;;;0.90;0.90;;;-0.70;70.00;;;-1.12;57.55;95731.66;5054433;28;20203;-20
2023/03/01 00:21:28;;;;;;;0.70;0.70;;;-0.70;70.00;;;-1.11;57.30;95719.59;5037035;28;20232;-19
2023/03/01 00:23:55;;;;;;;0.80;0.80;;;-0.70;69.90;;;-1.13;57.78;95730.81;5037234;28;20207;-19
2023/03/01 00:26:25;;;;;;;0.80;0.80;;;-0.70;70.00;;;-1.17;57.58;95718.25;5054442;28;20249;-19
2023/03/01 00:28:53;;;;;;;0.80;0.80;;;-0.80;70.10;;;-1.20;57.54;95721.81;5036990;28;20192;-19
2023/03/01 00:31:29;;;;;;;0.80;0.80;;;-0.80;70.10;;;-1.19;57.68;95725.25;5036885;28;20200;-21
2023/03/01 00:34:02;;;;;;;0.90;0.90;;;-0.80;70.20;;;-1.22;57.79;95722.84;5054674;28;20188;-19
2023/03/01 00:36:33;;;;;;;0.80;0.80;;;-0.80;70.20;;;-1.26;57.86;95714.50;5036887;28;20212;-20
2023/03/01 00:39:02;;;;;;;0.70;0.70;;;-0.80;70.20;;;-1.29;57.99;95709.56;5054280;28;20200;-19
2023/03/01 00:41:30;;;;;;;0.90;0.90;;;-0.80;70.30;;;-1.29;58.25;95709.56;5055038;28;20207;-22
2023/03/01 00:43:57;;;;;;;0.77;0.77;;;-0.90;70.30;;;-1.30;58.12;95710.50;5054253;28;20526;-22
2023/03/01 00:46:26;;;;;;;0.80;0.80;;;-0.90;70.40;;;-1.30;58.15;95703.59;5054297;28;20576;-20
2023/03/01 00:48:54;;;;;;;0.80;0.80;;;-0.90;70.40;;;-1.33;58.54;95703.78;5053384;28;20239;-20
2023/03/01 00:51:26;;;;;;;0.90;0.90;;;-0.90;70.50;;;-1.34;58.64;95707.28;5058158;28;20188;-20
2023/03/01 00:53:59;;;;;;;0.90;0.90;;;-0.90;70.60;;;-1.32;58.41;95707.19;5058220;28;20282;-20
2023/03/01 00:56:27;;;;;;;0.80;0.80;;;-0.90;70.60;;;-1.35;58.02;95704.81;5041129;28;20204;-20
2023/03/01 00:58:54;;;;;;;0.80;0.80;;;-0.90;70.60;;;-1.37;58.21;95704.91;5057654;28;20638;-20
2023/03/01 01:01:27;;;;;;;0.82;0.82;;;-0.90;70.60;;;-1.41;58.41;95703.47;5058011;28;20267;-20
2023/03/01 01:04:02;;;;;;;0.90;0.90;;;-1.00;70.60;;;-1.41;58.83;95705.22;5057957;28;20195;-20
2023/03/01 01:06:37;;;;;;;0.80;0.80;;;-0.90;70.70;;;-1.43;58.75;95702.72;5040537;28;20224;-20
2023/03/01 01:09:07;;;;;;;0.80;0.80;;;-1.00;70.70;;;-1.43;58.63;95701.91;5040035;28;20212;-21
2023/03/01 01:11:37;;;;;;;0.80;0.80;;;-1.00;70.70;;;-1.43;58.61;95704.47;5057540;28;20239;-20
2023/03/01 01:14:04;;;;;;;0.80;0.80;;;-1.00;70.70;;;-1.46;58.47;95701.16;5057669;28;20184;-20
2023/03/01 01:16:33;;;;;;;0.80;0.80;;;-1.00;70.70;;;-1.46;58.92;95700.34;5056447;28;20202;-19
2023/03/01 01:19:01;;;;;;;0.80;0.80;;;-1.00;70.80;;;-1.50;59.38;95699.72;5039850;28;20254;-21
2023/03/01 01:21:28;;;;;;;0.80;0.80;;;-1.00;70.90;;;-1.51;59.33;95695.50;5056204;28;20243;-20
2023/03/01 01:23:56;;;;;;;0.77;0.77;;;-1.10;71.00;;;-1.51;59.31;95692.13;5056368;28;20200;-20
2023/03/01 01:26:27;;;;;;;0.80;0.80;;;-1.10;71.10;;;-1.51;59.30;95692.94;5056288;28;20196;-20
2023/03/01 01:28:56;;;;;;;0.90;0.90;;;-1.10;71.10;;;-1.52;59.07;95686.13;5057313;28;20172;-22
2023/03/01 01:31:25;;;;;;;0.80;0.80;;;-1.10;71.00;;;-1.52;58.55;95680.97;5057435;28;20581;-20
2023/03/01 01:33:54;;;;;;;0.75;0.75;;;-1.10;71.00;;;-1.53;58.52;95681.09;5039809;28;20203;-19
2023/03/01 01:36:21;;;;;;;0.80;0.80;;;-1.10;70.90;;;-1.54;58.43;95674.28;5039540;28;20210;-20
2023/03/01 01:38:49;;;;;;;0.70;0.70;;;-1.10;71.80;;;-1.55;58.38;95680.34;5057156;28;20200;-20
2023/03/01 01:41:16;;;;;;;0.80;0.80;;;-1.10;70.80;;;-1.58;58.42;95665.94;5057018;28;20188;-20
2023/03/01 01:44:13;;;;;;;0.80;0.80;;;-1.20;70.70;;;-1.62;58.35;95670.47;5039386;28;20200;-20
2023/03/01 01:46:48;;;;;;;0.80;0.80;;;-1.20;70.80;;;-1.66;58.38;95665.59;5056932;28;20211;-20
2023/03/01 01:49:30;;;;;;;0.90;0.90;;;-1.20;70.80;;;-1.66;58.43;95666.44;5039509;28;20237;-19
2023/03/01 01:52:13;;;;;;;0.90;0.90;;;-1.20;70.90;;;-1.70;58.17;95659.03;5055844;28;20588;-20
2023/03/01 01:55:11;;;;;;;0.80;0.80;;;-1.30;70.70;;;-1.72;58.29;95663.44;5056964;28;20191;-20
2023/03/01 01:57:43;;;;;;;0.80;0.80;;;-1.30;70.80;;;-1.77;58.04;95653.41;5056562;28;20532;-20
2023/03/01 02:00:24;;;;;;;0.70;0.70;;;-1.30;70.80;;;-1.77;58.36;95658.56;5039729;28;20191;-20
2023/03/01 02:03:19;;;;;;;0.90;0.90;;;-1.30;70.80;;;-1.79;58.61;95648.38;5056523;28;20180;-20
2023/03/01 02:06:15;;;;;;;0.80;0.80;;;-1.40;70.80;;;-1.81;58.74;95647.69;5033597;28;20199;-20
2023/03/01 02:08:43;;;;;;;0.70;0.70;;;-1.40;70.90;;;-1.82;58.65;95642.63;5039043;28;20191;-19
2023/03/01 02:11:11;;;;;;;0.80;0.80;;;-1.40;70.90;;;-1.80;58.65;95640.78;5038985;28;20540;-20
2023/03/01 02:13:38;;;;;;;0.90;0.90;;;-1.40;71.00;;;-1.80;58.80;95640.78;5022498;28;20223;-19
2023/03/01 02:16:14;;;;;;;0.80;0.80;;;-1.40;71.00;;;-1.83;58.68;95640.97;5056358;28;20647;-19
2023/03/01 02:18:43;;;;;;;0.95;0.95;;;-1.40;71.10;;;-1.82;59.06;95645.19;5039242;28;20196;-20
2023/03/01 02:21:44;;;;;;;0.80;0.80;;;-1.40;71.10;;;-1.84;58.78;95637.56;5038518;28;20238;-22
2023/03/01 02:24:25;;;;;;;0.82;0.82;;;-1.40;72.10;;;-1.87;59.42;95647.22;5039134;28;20176;-20
2023/03/01 02:26:55;;;;;;;0.80;0.80;;;-1.40;71.30;;;-1.88;59.50;95643.84;5055207;28;20207;-20
2023/03/01 02:29:24;;;;;;;0.90;0.90;;;-1.40;71.30;;;-1.84;59.38;95653.00;5056013;28;20180;-19
2023/03/01 02:31:56;;;;;;;0.80;0.80;;;-1.40;71.40;;;-1.84;59.44;95644.47;5039047;28;20302;-19
2023/03/01 02:34:26;;;;;;;0.70;0.70;;;-1.40;71.40;;;-1.85;58.96;95642.81;5056003;28;20176;-19
2023/03/01 02:37:05;;;;;;;0.90;0.90;;;-1.40;71.40;;;-1.86;59.12;95644.56;5038548;28;20188;-20
2023/03/01 02:39:41;;;;;;;0.80;0.80;;;-1.40;71.40;;;-1.87;58.89;95649.81;5056394;28;20207;-20
2023/03/01 02:42:15;;;;;;;0.80;0.80;;;-1.40;71.30;;;-1.88;58.70;95649.00;5038907;28;20188;-20
2023/03/01 02:44:43;;;;;;;0.80;0.80;;;-1.50;71.10;;;-1.90;58.61;95648.25;5021960;28;20213;-20
2023/03/01 02:47:10;;;;;;;1.00;1.00;;;-1.50;71.10;;;-1.89;58.63;95655.03;5055722;28;20204;-20
2023/03/01 02:49:37;;;;;;;0.80;0.80;;;-1.50;71.10;;;-1.92;58.46;95649.28;5055612;28;20532;-20
2023/03/01 02:52:47;;;;;;;0.80;0.80;;;-1.50;71.10;;;-1.93;58.21;95661.28;5054720;28;20299;-19
2023/03/01 02:55:17;;;;;;;0.80;0.80;;;-1.50;71.10;;;-1.98;58.49;95664.16;5055502;28;20640;-19
2023/03/01 02:57:51;;;;;;;0.70;0.70;;;-1.50;71.10;;;-2.00;58.74;95660.84;5038082;28;20224;-19
2023/03/01 03:00:28;;;;;;;0.90;0.90;;;-1.60;71.10;;;-2.02;58.69;95659.31;5038536;28;20224;-19
2023/03/01 03:02:56;;;;;;;0.80;0.80;;;-1.60;71.10;;;-2.02;58.90;95667.84;5038138;28;20196;-19
2023/03/01 03:05:28;;;;;;;0.88;0.88;;;-1.60;71.10;;;-2.02;58.96;95662.69;5037844;28;20207;-20
2023/03/01 03:07:59;;;;;;;0.70;0.70;;;-1.60;71.30;;;-2.05;59.54;95650.03;5037711;28;20188;-19
2023/03/01 03:10:34;;;;;;;0.70;0.70;;;-1.60;71.40;;;-2.06;59.49;95656.09;5037912;28;20253;-19
2023/03/01 03:13:12;;;;;;;0.80;0.80;;;-1.60;71.50;;;-2.06;59.90;95663.81;5054343;28;20249;-19
2023/03/01 03:15:42;;;;;;;0.80;0.80;;;-1.60;71.60;;;-2.05;60.11;95664.63;5037970;28;20200;-19
2023/03/01 03:18:13;;;;;;;0.80;0.80;;;-1.60;71.70;;;-2.01;60.00;95672.06;5054034;28;20273;-20
2023/03/01 03:20:42;;;;;;;0.80;0.80;;;-1.60;71.80;;;-2.04;60.42;95656.81;5055471;28;20285;-19
2023/03/01 03:23:09;;;;;;;0.70;0.70;;;-1.60;72.00;;;-2.00;60.20;95657.44;5037855;28;20192;-20
2023/03/01 03:25:37;;;;;;;0.80;0.80;;;-1.60;72.00;;;-1.99;60.12;95659.09;5038018;28;20199;-19
2023/03/01 03:28:09;;;;;;;0.70;0.70;;;-1.60;71.90;;;-1.95;60.02;95663.97;5054861;28;20631;-19
2023/03/01 03:30:40;;;;;;;0.88;0.88;;;-1.60;72.00;;;-1.96;59.74;95651.22;5054198;28;20200;-21
2023/03/01 03:33:08;;;;;;;0.80;0.80;;;-1.50;72.00;;;-1.97;60.13;95647.78;5055027;28;20192;-20
2023/03/01 03:35:47;;;;;;;0.80;0.80;;;-1.50;72.10;;;-1.96;60.06;95653.78;5038293;28;20232;-20
2023/03/01 03:38:17;;;;;;;0.80;0.80;;;-1.50;72.10;;;-1.96;60.15;95648.63;5038442;28;20227;-21
2023/03/01 03:41:02;;;;;;;0.90;0.90;;;-1.50;72.10;;;-1.94;60.44;95649.38;5037854;28;20522;-19
2023/03/01 03:43:33;;;;;;;0.80;0.80;;;-1.50;72.10;;;-1.94;60.60;95647.63;5055234;28;20176;-19
2023/03/01 03:46:00;;;;;;;0.90;0.90;;;-1.50;72.20;;;-1.92;60.66;95646.69;5054914;28;20188;-19
2023/03/01 03:48:27;;;;;;;0.80;0.80;;;-1.50;72.20;;;-1.89;60.43;95655.03;5054756;28;20200;-21
2023/03/01 03:50:57;;;;;;;0.80;0.80;;;-1.40;72.30;;;-1.88;60.59;95654.13;5021485;28;20282;-20
2023/03/01 03:53:28;;;;;;;0.90;0.90;;;-1.40;72.30;;;-1.87;60.36;95654.94;5055036;28;20510;-19
2023/03/01 03:55:55;;;;;;;0.90;0.90;;;-1.40;72.30;;;-1.86;60.26;95647.13;5037763;28;20278;-19
2023/03/01 03:58:23;;;;;;;0.90;0.90;;;-1.40;72.20;;;-1.86;60.14;95647.13;5054596;28;20254;-20
2023/03/01 04:00:55;;;;;;;0.80;0.80;;;-1.40;72.20;;;-1.83;60.27;95654.66;5054886;28;20195;-20
2023/03/01 04:03:25;;;;;;;0.90;0.90;;;-1.40;72.20;;;-1.84;60.24;95653.00;5037789;28;20576;-20
2023/03/01 04:05:53;;;;;;;0.90;0.90;;;-1.40;72.10;;;-1.84;60.05;95647.03;5054756;28;20218;-20
2023/03/01 04:08:22;;;;;;;0.90;0.90;;;-1.40;72.10;;;-1.84;60.19;95645.28;5037615;28;20192;-19
2023/03/01 04:10:53;;;;;;;0.70;0.70;;;-1.30;72.20;;;-1.82;60.40;95643.47;5054863;28;20196;-20
2023/03/01 04:13:22;;;;;;;0.90;0.90;;;-1.30;72.20;;;-1.83;60.25;95631.50;5037714;28;20218;-20
2023/03/01 04:15:51;;;;;;;0.80;0.80;;;-1.30;72.20;;;-1.81;60.19;95629.69;5053695;28;20196;-20
2023/03/01 04:18:21;;;;;;;0.90;0.90;;;-1.30;72.20;;;-1.80;60.39;95635.63;5054709;28;20234;-20
2023/03/01 04:20:51;;;;;;;0.70;0.70;;;-1.30;72.30;;;-1.76;59.87;95624.22;5053494;28;20250;-20
2023/03/01 04:23:20;;;;;;;0.90;0.90;;;-1.30;72.20;;;-1.77;59.99;95630.28;5054660;28;20184;-19
2023/03/01 04:25:58;;;;;;;0.70;0.70;;;-1.30;72.20;;;-1.75;59.94;95630.19;5040517;28;20196;-19
2023/03/01 04:28:39;;;;;;;0.80;0.80;;;-1.30;72.20;;;-1.75;60.46;95631.00;5041266;28;20580;-19
2023/03/01 04:31:13;;;;;;;0.80;0.80;;;-1.30;72.10;;;-1.77;59.97;95625.13;5058635;28;20245;-20
2023/03/01 04:33:43;;;;;;;0.90;0.90;;;-1.30;72.10;;;-1.79;59.89;95625.25;5041499;28;20191;-19
2023/03/01 04:36:13;;;;;;;0.80;0.80;;;-1.30;72.00;;;-1.79;60.02;95627.81;5058212;28;20196;-20
2023/03/01 04:38:40;;;;;;;0.70;0.70;;;-1.30;72.10;;;-1.82;60.33;95619.47;5058324;28;20627;-19
2023/03/01 04:41:13;;;;;;;0.80;0.80;;;-1.30;72.10;;;-1.83;60.31;95620.38;5040792;28;20195;-19
2023/03/01 04:43:40;;;;;;;0.90;0.90;;;-1.30;72.20;;;-1.83;60.51;95617.81;5058405;28;20603;-19
2023/03/01 04:46:16;;;;;;;0.90;0.90;;;-1.30;72.30;;;-1.82;60.14;95614.31;5058605;28;20246;-20
2023/03/01 04:48:44;;;;;;;0.90;0.90;;;-1.30;73.20;;;-1.81;60.15;95613.41;5058128;28;20622;-20
2023/03/01 04:51:15;;;;;;;0.90;0.90;;;-1.30;72.20;;;-1.84;60.44;95614.44;5040568;28;20196;-19
2023/03/01 04:53:44;;;;;;;0.82;0.82;;;-1.30;72.30;;;-1.82;60.04;95627.19;5058051;28;20504;-19
2023/03/01 04:56:13;;;;;;;1.00;1.00;;;-1.30;72.30;;;-1.84;59.98;95614.44;5056894;28;20270;-21
2023/03/01 04:58:41;;;;;;;0.88;0.88;;;-1.30;73.10;;;-1.86;60.35;95620.59;5057522;28;20211;-21
2023/03/01 05:01:15;;;;;;;0.82;0.82;;;-1.30;72.20;;;-1.86;60.31;95610.31;5040350;28;20222;-19
2023/03/01 05:03:49;;;;;;;0.85;0.85;;;-1.40;72.10;;;-1.85;60.06;95617.13;5057972;28;20199;-20
2023/03/01 05:06:18;;;;;;;0.80;0.80;;;-1.40;72.20;;;-1.88;60.04;95622.44;5057707;28;20604;-19
2023/03/01 05:08:45;;;;;;;0.90;0.90;;;-1.30;72.20;;;-1.87;60.24;95622.34;5040085;28;20242;-19
2023/03/01 05:11:12;;;;;;;0.80;0.80;;;-1.40;72.20;;;-1.87;60.27;95622.34;5057574;28;20200;-20
2023/03/01 05:13:39;;;;;;;0.80;0.80;;;-1.30;72.30;;;-1.89;60.13;95613.91;5057525;28;20188;-19
2023/03/01 05:16:11;;;;;;;0.80;0.80;;;-1.40;72.20;;;-1.87;60.24;95613.81;5057483;28;20196;-20
2023/03/01 05:18:40;;;;;;;0.80;0.80;;;-1.40;72.20;;;-1.87;60.10;95618.94;5057968;28;20694;-20
2023/03/01 05:21:12;;;;;;;0.80;0.80;;;-1.30;72.30;;;-1.84;60.15;95609.28;5023239;28;20701;-20
2023/03/01 05:23:39;;;;;;;0.82;0.82;;;-1.40;72.20;;;-1.85;60.39;95619.69;5040068;28;20267;-20
2023/03/01 05:26:08;;;;;;;0.80;0.80;;;-1.30;72.30;;;-1.82;60.27;95619.47;5057311;28;20188;-20
2023/03/01 05:28:58;;;;;;;0.88;0.88;;;-1.30;72.40;;;-1.78;60.40;95619.19;5057237;28;20607;-19
2023/03/01 05:31:25;;;;;;;0.90;0.90;;;-1.30;72.40;;;-1.76;60.36;95613.94;5040742;28;20223;-19
2023/03/01 05:33:52;;;;;;;0.82;0.82;;;-1.30;72.50;;;-1.77;61.04;95613.13;5057377;28;20204;-20
2023/03/01 05:36:19;;;;;;;0.80;0.80;;;-1.30;72.70;;;-1.72;61.04;95610.25;5055820;28;20275;-19
2023/03/01 05:38:46;;;;;;;0.80;0.80;;;-1.20;73.00;;;-1.63;61.02;95614.78;5056996;28;20212;-20
2023/03/01 05:41:16;;;;;;;0.70;0.70;;;-1.20;73.10;;;-1.57;61.16;95617.91;5039536;28;20558;-20
2023/03/01 05:43:44;;;;;;;0.80;0.80;;;-1.10;73.20;;;-1.51;61.07;95617.50;5056974;28;20194;-19
2023/03/01 05:46:13;;;;;;;0.77;0.77;;;-1.00;73.30;;;-1.44;61.38;95621.34;5039782;28;20581;-20
2023/03/01 05:48:40;;;;;;;0.90;0.90;;;-0.90;73.40;;;-1.33;61.29;95621.44;5055794;28;20275;-19
2023/03/01 05:51:07;;;;;;;0.70;0.70;;;-0.90;73.40;;;-1.22;61.02;95625.88;5056671;28;20250;-20
2023/03/01 05:53:34;;;;;;;0.80;0.80;;;-0.80;73.40;;;-1.14;60.82;95625.38;5056787;28;20526;-20
2023/03/01 05:56:04;;;;;;;0.70;0.70;;;-0.70;73.40;;;-1.04;60.87;95625.56;5055772;28;20253;-19
2023/03/01 05:58:31;;;;;;;0.80;0.80;;;-0.60;73.50;;;-0.95;60.58;95632.69;5056630;28;20230;-19
2023/03/01 06:00:58;;;;;;;0.70;0.70;;;-0.50;73.40;;;-0.89;60.53;95641.75;5056572;28;20257;-20
2023/03/01 06:03:25;;;;;;;0.90;0.90;;;-0.40;73.40;;;-0.80;60.45;95633.41;5056836;28;20313;-19
2023/03/01 06:05:57;;;;;;;0.80;0.80;;;-0.30;73.40;;;-0.71;60.42;95635.38;5056897;28;20196;-20
2023/03/01 06:08:26;;;;;;;0.90;0.90;;;-0.20;73.30;;;-0.62;60.17;95636.50;5039243;28;20600;-20
2023/03/01 06:10:54;;;;;;;0.90;0.90;;;-0.20;73.10;;;-0.58;60.12;95643.06;5056343;28;20196;-20
2023/03/01 06:13:22;;;;;;;0.77;0.77;;;-0.10;73.00;;;-0.55;59.73;95639.44;5056434;28;20188;-19
2023/03/01 06:15:49;;;;;;;0.80;0.80;;;-0.10;72.80;;;-0.54;59.70;95641.94;5056384;28;20207;-22
2023/03/01 06:18:17;;;;;;;0.80;0.80;;;0.00;72.70;;;-0.52;59.27;95639.25;5039522;28;20208;-20
2023/03/01 06:20:43;;;;;;;0.80;0.80;;;0.00;72.50;;;-0.53;59.21;95637.59;5056021;28;20253;-19
2023/03/01 06:23:10;;;;;;;0.90;0.90;;;0.00;72.50;;;-0.52;59.09;95644.41;5038862;28;20200;-21
2023/03/01 06:25:37;;;;;;;0.80;0.80;;;0.00;72.30;;;-0.55;59.27;95645.44;5056164;28;20571;-19
2023/03/01 06:28:04;;;;;;;0.80;0.80;;;0.00;72.30;;;-0.54;59.00;95649.69;5038896;28;20538;-20
2023/03/01 06:30:31;;;;;;;0.80;0.80;;;0.00;72.20;;;-0.55;59.25;95642.88;5055953;28;20682;-19
2023/03/01 06:33:01;;;;;;;0.85;0.85;;;0.00;72.20;;;-0.53;59.18;95642.75;5022575;28;20204;-20
2023/03/01 06:35:29;;;;;;;0.80;0.80;;;0.00;72.20;;;-0.55;59.04;95637.72;5055680;28;20204;-20
2023/03/01 06:37:58;;;;;;;0.80;0.80;;;0.00;72.20;;;-0.55;59.02;95640.28;5056390;28;20196;-20
2023/03/01 06:40:26;;;;;;;0.90;0.90;;;0.00;72.20;;;-0.58;59.20;95634.53;5054903;28;20191;-20
2023/03/01 06:42:53;;;;;;;0.70;0.70;;;0.00;72.20;;;-0.57;59.32;95644.72;5022464;28;20192;-19
2023/03/01 06:45:21;;;;;;;0.75;0.75;;;0.00;72.20;;;-0.55;59.34;95640.28;5055754;28;20243;-19
2023/03/01 06:47:48;;;;;;;0.80;0.80;;;0.00;72.20;;;-0.55;59.35;95636.88;5054417;28;20256;-20
2023/03/01 06:50:17;;;;;;;0.80;0.80;;;0.00;72.20;;;-0.53;59.05;95642.75;5055568;28;20184;-20
2023/03/01 06:52:44;;;;;;;0.70;0.70;;;0.00;72.30;;;-0.51;59.27;95643.50;5056173;28;20576;-19
2023/03/01 06:55:13;;;;;;;0.80;0.80;;;0.00;72.20;;;-0.51;59.12;95638.34;5038562;28;20184;-20
2023/03/01 06:57:40;;;;;;;0.80;0.80;;;0.00;72.20;;;-0.51;59.30;95644.31;5038332;28;20211;-20
2023/03/01 07:00:09;;;;;;;0.90;0.90;;;0.10;72.20;;;-0.49;59.23;95647.59;5037961;28;20211;-19
2023/03/01 07:02:36;;;;;;;0.70;0.70;;;0.10;72.30;;;-0.44;59.30;95641.28;5055456;28;20201;-20
2023/03/01 07:05:03;;;;;;;0.70;0.70;;;0.10;72.40;;;-0.41;59.50;95647.06;5055385;28;20200;-20
2023/03/01 07:07:30;;;;;;;0.90;0.90;;;0.10;72.30;;;-0.41;59.11;95639.34;5055370;28;20196;-21
2023/03/01 07:09:57;;;;;;;0.90;0.90;;;0.10;72.30;;;-0.38;59.08;95639.13;5055484;28;20267;-20
2023/03/01 07:12:24;;;;;;;0.80;0.80;;;0.20;72.30;;;-0.37;59.29;95638.19;5055366;28;20193;-19
2023/03/01 07:14:51;;;;;;;0.80;0.80;;;0.20;72.30;;;-0.34;59.19;95642.31;5038166;28;20200;-19
2023/03/01 07:17:18;;;;;;;0.90;0.90;;;0.20;72.30;;;-0.34;59.25;95640.56;5055508;28;20203;-19
2023/03/01 07:19:45;;;;;;;0.90;0.90;;;0.20;72.40;;;-0.30;59.44;95638.59;5054764;28;20659;-19
2023/03/01 07:22:12;;;;;;;0.90;0.90;;;0.30;72.50;;;-0.25;59.35;95633.13;5055185;28;20592;-20
2023/03/01 07:24:41;;;;;;;0.70;0.70;;;0.30;72.50;;;-0.20;59.44;95633.63;5054579;28;20188;-19
2023/03/01 07:27:09;;;;;;;0.80;0.80;;;0.30;72.50;;;-0.14;59.32;95632.38;5038183;28;20202;-20
2023/03/01 07:29:37;;;;;;;0.80;0.80;;;0.40;72.50;;;-0.11;58.99;95632.13;5055580;28;20195;-20
2023/03/01 07:32:05;;;;;;;0.70;0.70;;;0.40;72.50;;;-0.06;59.13;95630.91;5038346;28;20199;-20
2023/03/01 07:34:32;;;;;;;0.70;0.70;;;0.50;73.50;;;-0.01;59.52;95636.53;5037708;28;20257;-20
2023/03/01 07:36:59;;;;;;;0.90;0.90;;;0.50;72.60;;;0.04;59.36;95630.22;5054873;28;20655;-20
2023/03/01 07:39:26;;;;;;;0.75;0.75;;;0.50;72.70;;;0.11;59.99;95636.59;5054874;28;20212;-22
2023/03/01 07:41:53;;;;;;;0.80;0.80;;;0.60;72.80;;;0.18;59.82;95637.00;5054758;28;20582;-20
2023/03/01 07:44:21;;;;;;;0.90;0.90;;;0.70;73.00;;;0.23;59.69;95632.31;5037322;28;20600;-20
2023/03/01 07:46:48;;;;;;;0.70;0.70;;;0.80;73.00;;;0.30;59.84;95638.69;5053916;28;20202;-20
2023/03/01 07:49:16;;;;;;;0.90;0.90;;;0.90;73.00;;;0.39;59.83;95632.03;5054813;28;20258;-20
2023/03/01 07:51:43;;;;;;;0.80;0.80;;;0.90;72.90;;;0.46;59.59;95626.34;5037613;28;20588;-20
2023/03/01 07:54:10;;;;;;;0.70;0.70;;;1.00;72.90;;;0.57;59.68;95628.13;5055039;28;20254;-20
2023/03/01 07:56:37;;;;;;;0.70;0.70;;;1.10;73.00;;;0.66;59.59;95623.22;5037721;28;20520;-20
2023/03/01 07:59:04;;;;;;;0.70;0.70;;;1.20;73.00;;;0.72;59.37;95621.03;5055652;28;20215;-20
2023/03/01 08:01:31;;;;;;;0.80;0.80;;;1.30;72.90;;;0.79;59.39;95623.94;5058646;28;20210;-20
2023/03/01 08:03:58;;;;;;;0.88;0.88;;;1.40;72.80;;;0.87;59.33;95620.81;5041494;28;20184;-20
2023/03/01 08:06:25;;;;;;;0.70;0.70;;;1.50;72.80;;;0.98;59.39;95623.41;5059096;28;20199;-20
2023/03/01 08:08:55;;;;;;;0.70;0.70;;;1.50;72.80;;;1.08;59.56;95608.06;5058766;28;20192;-20
2023/03/01 08:11:23;;;;;;;0.80;0.80;;;1.60;73.00;;;1.20;59.83;95620.03;5058544;28;20207;-20
2023/03/01 08:13:50;;;;;;;0.70;0.70;;;1.80;73.20;;;1.33;59.20;95611.34;5058922;28;20574;-19
2023/03/01 08:16:19;;;;;;;0.80;0.80;;;1.90;73.10;;;1.46;59.08;95603.47;5058611;28;20285;-20
2023/03/01 08:18:46;;;;;;;0.80;0.80;;;2.00;73.00;;;1.58;59.25;95602.53;5058520;28;20208;-20
2023/03/01 08:21:17;;;;;;;0.80;0.80;;;2.20;73.00;;;1.71;58.91;95604.97;5053963;28;20243;-20
2023/03/01 08:23:44;;;;;;;0.70;0.70;;;2.30;72.80;;;1.81;58.13;95602.47;5037966;28;20177;-20
2023/03/01 08:26:18;;;;;;;0.90;0.90;;;2.40;72.60;;;1.92;58.35;95603.28;5037926;28;20208;-20
2023/03/01 08:28:47;;;;;;;0.70;0.70;;;2.50;72.40;;;2.04;57.90;95604.09;5038711;28;20268;-20
2023/03/01 08:31:35;;;;;;;0.80;0.80;;;2.60;72.20;;;2.15;57.96;95587.72;5037731;28;20523;-20
2023/03/01 08:34:09;;;;;;;0.80;0.80;;;2.70;72.20;;;2.28;57.95;95591.91;5054005;28;20193;-20
2023/03/01 08:36:43;;;;;;;0.70;0.70;;;2.90;72.10;;;2.34;57.46;95583.63;5038657;28;20181;-20
2023/03/01 08:39:14;;;;;;;0.80;0.80;;;3.00;72.00;;;2.45;57.32;95585.34;5038813;28;20524;-20
2023/03/01 08:41:41;;;;;;;0.80;0.80;;;3.10;71.80;;;2.53;57.24;95577.78;5038271;28;20252;-20
2023/03/01 08:44:12;;;;;;;0.80;0.80;;;3.20;71.60;;;2.63;57.24;95583.03;5054086;28;20197;-20
2023/03/01 08:46:41;;;;;;;0.80;0.80;;;3.30;71.50;;;2.71;56.86;95581.44;5037251;28;20197;-20
2023/03/01 08:49:15;;;;;;;0.90;0.90;;;3.40;71.30;;;2.81;56.78;95584.09;5038372;28;20211;-20
2023/03/01 08:51:44;;;;;;;0.90;0.90;;;3.50;71.30;;;2.90;56.83;95587.69;5037944;28;20272;-20
2023/03/01 08:54:15;;;;;;;0.60;0.60;;;3.60;71.40;;;2.98;57.08;95574.94;5037959;28;20212;-20
2023/03/01 08:56:42;;;;;;;0.80;0.80;;;3.70;71.50;;;3.08;56.88;95577.56;5053644;28;20201;-20
2023/03/01 08:59:11;;;;;;;0.60;0.60;;;3.80;71.50;;;3.18;56.51;95578.44;5036964;28;20672;-20
2023/03/01 09:01:39;;;;;;;0.80;0.80;;;3.80;71.50;;;3.30;56.47;95573.16;5037754;28;20192;-21
2023/03/01 09:04:06;;;;;;;0.60;0.60;;;3.90;71.30;;;3.40;55.96;95570.63;5037819;28;20620;-21
2023/03/01 09:06:34;;;;;;;0.70;0.70;;;4.00;71.10;;;3.46;55.91;95567.50;5037803;28;20225;-20
2023/03/01 09:09:03;;;;;;;0.80;0.80;;;4.10;71.00;;;3.59;55.95;95575.03;5037981;28;20204;-20
2023/03/01 09:11:30;;;;;;;0.80;0.80;;;4.20;71.00;;;3.72;55.58;95573.00;5036857;28;20205;-20
2023/03/01 09:13:57;;;;;;;0.90;0.90;;;4.30;70.80;;;3.79;55.74;95561.16;5038188;28;20200;-19
2023/03/01 09:16:24;;;;;;;0.80;0.80;;;4.40;70.80;;;3.93;55.65;95561.72;5037605;28;20200;-20
2023/03/01 09:18:53;;;;;;;0.60;0.60;;;4.50;70.90;;;4.01;55.61;95554.09;5037787;28;20213;-20
2023/03/01 09:21:23;;;;;;;0.80;0.80;;;4.60;70.60;;;4.09;54.90;95543.03;5036446;28;20313;-19
2023/03/01 09:24:12;;;;;;;0.80;0.80;;;4.70;70.30;;;4.23;55.05;95560.00;5037819;28;20181;-19
2023/03/01 09:26:39;;;;;;;0.70;0.70;;;4.80;70.20;;;4.35;55.15;95561.50;5037724;28;20189;-20
2023/03/01 09:29:06;;;;;;;0.60;0.60;;;4.90;70.30;;;4.48;55.04;95563.81;5037640;28;20185;-20
2023/03/01 09:31:33;;;;;;;0.70;0.70;;;5.00;70.30;;;4.59;54.37;95552.44;5037430;28;20623;-19
2023/03/01 09:34:00;;;;;;;0.63;0.63;;;5.20;70.00;;;4.71;54.14;95563.50;5037243;28;20200;-20
2023/03/01 09:36:28;;;;;;;0.60;0.60;;;5.30;69.90;;;4.88;53.80;95564.56;5037211;28;20216;-19
2023/03/01 09:38:57;;;;;;;0.80;0.80;;;5.50;69.70;;;5.01;53.67;95562.50;5036800;28;20217;-20
2023/03/01 09:41:46;;;;;;;0.80;0.80;;;5.60;69.80;;;5.25;52.83;95564.59;5036326;28;20667;-19
2023/03/01 09:44:31;;;;;;;0.70;0.70;;;5.80;69.70;;;5.50;53.31;95558.91;5036171;28;20189;-19
2023/03/01 09:47:00;;;;;;;0.60;0.60;;;6.00;69.60;;;5.66;51.81;95545.25;5037051;28;20284;-20
2023/03/01 09:49:35;;;;;;;0.70;0.70;;;6.30;69.20;;;5.91;51.88;95546.34;5036253;28;20592;-21
2023/03/01 09:52:29;;;;;;;0.70;0.70;;;6.50;68.80;;;6.13;51.16;95546.91;5036098;28;20514;-21
2023/03/01 09:54:56;;;;;;;0.70;0.70;;;6.70;68.60;;;6.33;50.14;95543.19;5036519;28;20199;-19
2023/03/01 09:57:35;;;;;;;0.70;0.70;;;7.00;68.00;;;6.53;50.19;95549.06;5035921;28;20291;-20
2023/03/01 10:00:05;;;;;;;0.60;0.60;;;7.20;67.80;;;6.76;50.32;95539.94;5036703;28;20660;-19
2023/03/01 10:02:48;;;;;;;0.60;0.60;;;7.40;67.60;;;6.96;50.06;95523.13;5036897;28;20629;-20
2023/03/01 10:06:12;;;;;;;0.60;0.60;;;7.60;67.20;;;7.19;49.16;95525.22;5037267;28;20188;-19
2023/03/01 10:09:15;;;;;;;0.60;0.60;;;7.80;67.20;;;7.37;48.69;95531.16;5036758;28;20628;-19
2023/03/01 10:11:52;;;;;;;0.60;0.60;;;8.10;66.50;;;7.53;47.20;95529.56;5036814;28;20617;-19
2023/03/01 10:14:48;;;;;;;0.90;0.90;;;8.30;65.30;;;7.60;47.91;95520.13;5036818;28;20200;-20
2023/03/01 10:17:39;;;;;;;0.60;0.60;;;8.40;65.90;;;7.71;47.60;95521.66;5035641;28;20195;-20
2023/03/01 10:20:24;;;;;;;0.60;0.60;;;8.60;65.50;;;7.82;46.59;95518.75;5035782;28;20667;-20
2023/03/01 10:22:54;;;;;;;0.60;0.60;;;8.70;64.70;;;7.92;46.50;95509.94;5035549;28;20188;-20
2023/03/01 10:25:30;;;;;;;0.70;0.70;;;8.90;64.20;;;8.02;47.19;95519.28;5036908;28;20180;-19
2023/03/01 10:28:13;;;;;;;0.60;0.60;;;8.90;64.60;;;8.09;46.99;95518.63;5036278;28;20216;-19
2023/03/01 10:30:43;;;;;;;0.70;0.70;;;9.00;64.30;;;8.16;47.18;95514.41;5036222;28;20283;-19
2023/03/01 10:33:25;;;;;;;0.70;0.70;;;9.20;64.60;;;8.27;47.41;95508.84;5036028;28;20238;-20
2023/03/01 10:35:53;;;;;;;0.57;0.57;;;9.20;64.60;;;8.37;46.96;95503.47;5036448;28;20375;-19
2023/03/01 10:38:20;;;;;;;0.80;0.80;;;9.30;64.40;;;8.41;46.49;95503.94;5036041;28;20227;-20
2023/03/01 10:40:55;;;;;;;0.60;0.60;;;9.40;64.00;;;8.49;46.90;95509.22;5035940;28;20553;-19
2023/03/01 10:43:23;;;;;;;0.70;0.70;;;9.50;64.20;;;8.53;44.83;95497.44;5036156;28;20193;-20